createdAt,value
2022-09-06T00:00:55.881Z,74.46
2022-09-06T00:01:55.900Z,74.46
2022-09-06T00:02:55.894Z,74.46
2022-09-06T00:03:55.909Z,74.26
2022-09-06T00:04:55.839Z,74.22
2022-09-06T00:05:55.830Z,74.02
2022-09-06T00:06:55.822Z,73.82
2022-09-06T00:07:55.821Z,73.62
2022-09-06T00:08:55.794Z,73.62
2022-09-06T00:09:55.780Z,73.52
2022-09-06T00:11:00.398Z,73.72
2022-09-06T00:11:56.761Z,73.82
2022-09-06T00:12:55.743Z,74.02
2022-09-06T00:13:55.753Z,74.16
2022-09-06T00:14:55.719Z,74.16
2022-09-06T00:15:55.820Z,74.36
2022-09-06T00:16:55.693Z,74.56
2022-09-06T00:17:55.693Z,74.76
2022-09-06T00:18:55.671Z,74.87
2022-09-06T00:19:55.682Z,74.87
2022-09-06T00:20:55.643Z,75.07
2022-09-06T00:21:55.655Z,75.20
2022-09-06T00:22:55.622Z,75.20
2022-09-06T00:23:55.621Z,75.20
2022-09-06T00:24:55.623Z,75.20
2022-09-06T00:25:55.593Z,75.20
2022-09-06T00:26:55.582Z,75.10
2022-09-06T00:27:55.573Z,75.10
2022-09-06T00:28:55.555Z,75.07
2022-09-06T00:29:55.544Z,74.96
2022-09-06T00:30:55.608Z,74.87
2022-09-06T00:31:55.529Z,74.87
2022-09-06T00:32:55.510Z,74.87
2022-09-06T00:33:55.494Z,74.87
2022-09-06T00:34:55.484Z,74.87
2022-09-06T00:35:55.632Z,74.96
2022-09-06T00:36:55.468Z,74.96
2022-09-06T00:37:55.456Z,74.87
2022-09-06T00:38:55.444Z,75.07
2022-09-06T00:39:55.478Z,75.07
2022-09-06T00:40:55.422Z,75.10
2022-09-06T00:41:55.432Z,75.10
2022-09-06T00:42:55.394Z,75.20
2022-09-06T00:43:55.395Z,75.31
2022-09-06T00:44:55.366Z,75.51
2022-09-06T00:45:55.399Z,75.40
2022-09-06T00:46:55.346Z,75.40
2022-09-06T00:47:55.358Z,75.40
2022-09-06T00:48:55.324Z,75.31
2022-09-06T00:49:55.315Z,75.20
2022-09-06T00:50:55.303Z,75.20
2022-09-06T00:51:55.286Z,75.20
2022-09-06T00:52:55.275Z,75.20
2022-09-06T00:53:55.316Z,75.20
2022-09-06T00:54:55.254Z,75.20
2022-09-06T00:55:55.245Z,75.31
2022-09-06T00:56:55.228Z,75.20
2022-09-06T00:57:55.227Z,75.31
2022-09-06T00:58:55.215Z,75.40
2022-09-06T00:59:55.228Z,75.40
2022-09-06T01:00:55.185Z,75.51
2022-09-06T01:01:55.333Z,75.60
2022-09-06T01:02:55.233Z,75.60
2022-09-06T01:03:55.155Z,75.71
2022-09-06T01:04:55.140Z,75.81
2022-09-06T01:05:55.148Z,75.81
2022-09-06T01:06:55.110Z,75.91
2022-09-06T01:07:55.107Z,75.91
2022-09-06T01:08:55.099Z,76.15
2022-09-06T01:09:55.086Z,76.15
2022-09-06T01:10:55.068Z,76.25
2022-09-06T01:11:55.085Z,76.35
2022-09-06T01:12:55.048Z,76.45
2022-09-06T01:13:55.039Z,76.55
2022-09-06T01:14:55.026Z,76.65
2022-09-06T01:15:55.058Z,76.65
2022-09-06T01:16:54.997Z,76.86
2022-09-06T01:17:55.007Z,76.95
2022-09-06T01:18:54.970Z,76.86
2022-09-06T01:19:54.982Z,76.86
2022-09-06T01:20:54.957Z,76.75
2022-09-06T01:21:54.960Z,76.65
2022-09-06T01:22:59.376Z,76.75
2022-09-06T01:23:54.928Z,76.75
2022-09-06T01:24:54.918Z,76.65
2022-09-06T01:25:54.900Z,76.55
2022-09-06T01:26:54.889Z,76.55
2022-09-06T01:27:54.877Z,76.45
2022-09-06T01:28:54.960Z,76.45
2022-09-06T01:29:54.853Z,76.45
2022-09-06T01:30:54.927Z,76.45
2022-09-06T01:31:54.828Z,76.35
2022-09-06T01:32:54.809Z,76.21
2022-09-06T01:33:54.809Z,76.11
2022-09-06T01:34:54.947Z,75.91
2022-09-06T01:35:54.779Z,75.81
2022-09-06T01:37:09.312Z,75.71
2022-09-06T01:37:55.760Z,75.60
2022-09-06T01:38:54.748Z,75.47
2022-09-06T01:39:54.786Z,75.47
2022-09-06T01:40:54.728Z,75.27
2022-09-06T01:41:54.712Z,75.27
2022-09-06T01:42:54.706Z,75.16
2022-09-06T01:43:54.688Z,75.16
2022-09-06T01:44:54.671Z,75.07
2022-09-06T01:45:54.707Z,75.07
2022-09-06T01:46:54.651Z,75.07
2022-09-06T01:47:54.640Z,75.07
2022-09-06T01:48:54.622Z,74.96
2022-09-06T01:49:54.622Z,74.96
2022-09-06T01:50:54.612Z,74.96
2022-09-06T01:51:54.621Z,75.07
2022-09-06T01:52:54.585Z,75.07
2022-09-06T01:53:54.580Z,75.07
2022-09-06T01:54:54.560Z,75.16
2022-09-06T01:55:54.550Z,75.16
2022-09-06T01:56:54.539Z,75.37
2022-09-06T01:57:54.542Z,75.47
2022-09-06T01:58:54.512Z,75.57
2022-09-06T01:59:54.501Z,75.57
2022-09-06T02:00:54.490Z,75.47
2022-09-06T02:01:54.542Z,75.47
2022-09-06T02:02:54.540Z,75.57
2022-09-06T02:03:54.461Z,75.57
2022-09-06T02:04:54.445Z,75.47
2022-09-06T02:05:54.434Z,75.27
2022-09-06T02:06:54.421Z,75.37
2022-09-06T02:07:54.413Z,75.47
2022-09-06T02:08:54.423Z,75.47
2022-09-06T02:09:54.385Z,75.47
2022-09-06T02:10:54.364Z,75.47
2022-09-06T02:11:54.371Z,75.47
2022-09-06T02:12:54.345Z,75.57
2022-09-06T02:13:54.371Z,75.67
2022-09-06T02:14:54.323Z,75.67
2022-09-06T02:15:54.313Z,75.57
2022-09-06T02:16:54.358Z,75.57
2022-09-06T02:17:54.294Z,75.47
2022-09-06T02:18:54.284Z,75.37
2022-09-06T02:19:54.294Z,75.37
2022-09-06T02:20:54.256Z,75.47
2022-09-06T02:21:54.252Z,75.37
2022-09-06T02:22:54.233Z,75.37
2022-09-06T02:23:54.224Z,75.37
2022-09-06T02:24:54.205Z,75.27
2022-09-06T02:25:54.225Z,75.37
2022-09-06T02:26:54.185Z,75.37
2022-09-06T02:27:54.175Z,74.93
2022-09-06T02:28:54.156Z,74.32
2022-09-06T02:29:54.155Z,73.38
2022-09-06T02:30:54.190Z,72.74
2022-09-06T02:31:54.145Z,71.91
2022-09-06T02:32:54.115Z,71.06
2022-09-06T02:33:54.109Z,70.53
2022-09-06T02:34:54.105Z,70.03
2022-09-06T02:35:54.085Z,69.89
2022-09-06T02:36:54.117Z,68.95
2022-09-06T02:37:54.064Z,68.12
2022-09-06T02:38:54.047Z,67.48
2022-09-06T02:39:54.095Z,66.78
2022-09-06T02:40:54.039Z,66.44
2022-09-06T02:41:54.017Z,65.94
2022-09-06T02:42:54.021Z,65.61
2022-09-06T02:43:53.997Z,65.41
2022-09-06T02:44:53.993Z,64.88
2022-09-06T02:45:54.026Z,64.88
2022-09-06T02:46:56.954Z,64.98
2022-09-06T02:47:53.969Z,64.88
2022-09-06T02:48:53.939Z,65.08
2022-09-06T02:49:53.927Z,64.75
2022-09-06T02:50:53.917Z,64.65
2022-09-06T02:51:53.897Z,64.45
2022-09-06T02:52:53.897Z,64.25
2022-09-06T02:53:53.907Z,64.25
2022-09-06T02:54:53.868Z,64.34
2022-09-06T02:55:53.874Z,64.54
2022-09-06T02:56:53.848Z,64.54
2022-09-06T02:57:53.837Z,64.54
2022-09-06T02:58:53.850Z,64.45
2022-09-06T02:59:53.810Z,64.65
2022-09-06T03:00:53.871Z,64.48
2022-09-06T03:01:53.789Z,64.58
2022-09-06T03:02:53.779Z,64.68
2022-09-06T03:03:53.762Z,64.78
2022-09-06T03:04:53.785Z,64.88
2022-09-06T03:05:53.742Z,64.88
2022-09-06T03:06:53.743Z,64.88
2022-09-06T03:07:53.720Z,65.01
2022-09-06T03:08:53.710Z,65.11
2022-09-06T03:09:53.691Z,65.21
2022-09-06T03:10:53.702Z,65.41
2022-09-06T03:11:53.670Z,65.31
2022-09-06T03:12:53.660Z,65.41
2022-09-06T03:13:53.650Z,65.51
2022-09-06T03:14:55.105Z,65.51
2022-09-06T03:15:53.623Z,65.61
2022-09-06T03:16:53.669Z,65.61
2022-09-06T03:17:53.593Z,65.81
2022-09-06T03:18:53.608Z,65.91
2022-09-06T03:19:53.575Z,66.11
2022-09-06T03:20:53.564Z,66.01
2022-09-06T03:21:53.573Z,66.11
2022-09-06T03:22:53.541Z,66.52
2022-09-06T03:23:53.526Z,66.85
2022-09-06T03:24:53.538Z,67.35
2022-09-06T03:25:53.509Z,67.22
2022-09-06T03:26:53.491Z,67.11
2022-09-06T03:27:53.504Z,66.91
2022-09-06T03:28:53.471Z,66.61
2022-09-06T03:29:53.455Z,66.52
2022-09-06T03:30:53.479Z,66.52
2022-09-06T03:31:53.423Z,66.52
2022-09-06T03:32:53.424Z,66.71
2022-09-06T03:33:53.434Z,67.14
2022-09-06T03:34:53.393Z,67.55
2022-09-06T03:35:53.384Z,67.55
2022-09-06T03:36:53.373Z,67.75
2022-09-06T03:37:53.357Z,67.65
2022-09-06T03:38:53.356Z,67.75
2022-09-06T03:39:53.496Z,67.85
2022-09-06T03:40:53.325Z,67.95
2022-09-06T03:41:53.315Z,68.05
2022-09-06T03:42:53.304Z,68.15
2022-09-06T03:43:53.285Z,68.08
2022-09-06T03:44:53.284Z,67.95
2022-09-06T03:45:53.333Z,67.75
2022-09-06T03:46:53.255Z,67.55
2022-09-06T03:47:53.243Z,67.45
2022-09-06T03:48:53.233Z,67.45
2022-09-06T03:49:53.217Z,67.45
2022-09-06T03:50:53.246Z,67.45
2022-09-06T03:51:53.187Z,67.35
2022-09-06T03:52:53.186Z,67.45
2022-09-06T03:53:53.173Z,67.32
2022-09-06T03:54:53.165Z,67.82
2022-09-06T03:55:53.159Z,68.55
2022-09-06T03:56:53.154Z,68.85
2022-09-06T03:57:53.117Z,69.15
2022-09-06T03:58:53.107Z,69.66
2022-09-06T03:59:53.103Z,69.66
2022-09-06T04:00:53.140Z,70.39
2022-09-06T04:01:53.123Z,70.79
2022-09-06T04:02:53.067Z,71.00
2022-09-06T04:03:53.057Z,71.80
2022-09-06T04:04:53.048Z,71.90
2022-09-06T04:05:53.036Z,73.44
2022-09-06T04:06:53.030Z,75.05
2022-09-06T04:07:53.038Z,75.95
2022-09-06T04:08:53.008Z,78.36
2022-09-06T04:09:52.998Z,78.90
2022-09-06T04:10:52.978Z,78.80
2022-09-06T04:11:52.958Z,78.60
2022-09-06T04:12:52.977Z,78.84
2022-09-06T04:13:52.956Z,79.74
2022-09-06T04:14:52.929Z,76.73
2022-09-06T04:15:52.923Z,76.12
2022-09-06T04:16:52.963Z,76.83
2022-09-06T04:17:52.929Z,77.83
2022-09-06T04:18:52.920Z,78.64
2022-09-06T04:19:52.871Z,79.74
2022-09-06T04:20:52.870Z,80.39
2022-09-06T04:21:52.853Z,80.08
2022-09-06T04:22:52.850Z,80.79
2022-09-06T04:23:52.830Z,80.58
2022-09-06T04:24:52.852Z,81.19
2022-09-06T04:25:52.810Z,79.38
2022-09-06T04:26:52.801Z,79.58
2022-09-06T04:27:52.794Z,79.58
2022-09-06T04:28:52.771Z,77.57
2022-09-06T04:29:52.761Z,77.37
2022-09-06T04:30:52.781Z,78.67
2022-09-06T04:31:52.780Z,78.78
2022-09-06T04:32:52.741Z,80.39
2022-09-06T04:33:52.721Z,81.39
2022-09-06T04:34:52.711Z,82.10
2022-09-06T04:35:52.702Z,82.70
2022-09-06T04:36:52.734Z,84.15
2022-09-06T04:37:52.672Z,84.95
2022-09-06T04:38:52.662Z,85.16
2022-09-06T04:39:52.718Z,85.46
2022-09-06T04:40:52.642Z,86.21
2022-09-06T04:41:52.634Z,86.21
2022-09-06T04:42:52.643Z,86.41
2022-09-06T04:43:52.605Z,87.31
2022-09-06T04:44:52.612Z,87.82
2022-09-06T04:45:52.676Z,88.12
2022-09-06T04:46:52.572Z,87.85
2022-09-06T04:47:52.555Z,87.55
2022-09-06T04:48:52.613Z,87.25
2022-09-06T04:49:52.533Z,85.84
2022-09-06T04:50:52.524Z,85.64
2022-09-06T04:51:52.514Z,85.54
2022-09-06T04:52:52.503Z,85.03
2022-09-06T04:53:52.486Z,86.04
2022-09-06T04:54:52.502Z,87.35
2022-09-06T04:55:52.473Z,88.06
2022-09-06T04:56:52.464Z,88.46
2022-09-06T04:57:52.445Z,88.06
2022-09-06T04:58:52.434Z,87.55
2022-09-06T04:59:52.424Z,86.65
2022-09-06T05:00:52.519Z,86.44
2022-09-06T05:01:52.439Z,85.64
2022-09-06T05:02:52.394Z,84.59
2022-09-06T05:03:56.200Z,85.10
2022-09-06T05:04:52.373Z,84.29
2022-09-06T05:05:52.376Z,83.18
2022-09-06T05:06:52.346Z,81.98
2022-09-06T05:07:52.336Z,80.97
2022-09-06T05:08:52.325Z,80.66
2022-09-06T05:09:52.306Z,81.03
2022-09-06T05:10:52.304Z,80.73
2022-09-06T05:11:52.306Z,81.23
2022-09-06T05:12:52.276Z,81.63
2022-09-06T05:13:52.266Z,80.83
2022-09-06T05:14:52.257Z,80.83
2022-09-06T05:15:52.237Z,80.43
2022-09-06T05:16:52.266Z,80.63
2022-09-06T05:17:52.238Z,80.43
2022-09-06T05:18:52.209Z,80.63
2022-09-06T05:19:52.200Z,80.12
2022-09-06T05:20:52.189Z,80.02
2022-09-06T05:21:52.178Z,79.82
2022-09-06T05:22:52.167Z,79.42
2022-09-06T05:23:55.479Z,79.32
2022-09-06T05:24:53.146Z,79.28
2022-09-06T05:25:52.129Z,78.78
2022-09-06T05:26:52.126Z,78.58
2022-09-06T05:27:52.109Z,78.47
2022-09-06T05:28:52.118Z,78.88
2022-09-06T05:29:52.087Z,78.88
2022-09-06T05:30:52.078Z,79.18
2022-09-06T05:31:52.107Z,78.17
2022-09-06T05:32:52.057Z,77.87
2022-09-06T05:33:52.041Z,77.97
2022-09-06T05:34:52.057Z,79.08
2022-09-06T05:35:52.019Z,79.99
2022-09-06T05:36:52.021Z,79.28
2022-09-06T05:37:52.001Z,79.18
2022-09-06T05:38:51.989Z,78.98
2022-09-06T05:39:59.071Z,79.79
2022-09-06T05:40:51.971Z,79.85
2022-09-06T05:41:51.952Z,79.24
2022-09-06T05:42:51.944Z,79.24
2022-09-06T05:43:51.978Z,78.34
2022-09-06T05:44:51.923Z,77.53
2022-09-06T05:45:52.013Z,79.14
2022-09-06T05:46:51.905Z,79.24
2022-09-06T05:47:51.884Z,79.44
2022-09-06T05:48:51.883Z,78.44
2022-09-06T05:49:51.864Z,78.03
2022-09-06T05:50:51.874Z,77.29
2022-09-06T05:51:51.865Z,77.20
2022-09-06T05:52:51.834Z,77.90
2022-09-06T05:53:51.824Z,78.20
2022-09-06T05:54:51.804Z,78.50
2022-09-06T05:55:51.794Z,78.70
2022-09-06T05:56:51.785Z,79.71
2022-09-06T05:57:51.793Z,80.11
2022-09-06T05:58:51.763Z,80.31
2022-09-06T05:59:51.747Z,80.21
2022-09-06T06:00:51.771Z,80.01
2022-09-06T06:01:51.770Z,81.41
2022-09-06T06:02:51.745Z,81.62
2022-09-06T06:03:51.696Z,81.52
2022-09-06T06:04:51.697Z,81.82
2022-09-06T06:05:51.676Z,82.82
2022-09-06T06:06:51.665Z,82.32
2022-09-06T06:07:51.657Z,83.53
2022-09-06T06:08:51.666Z,83.03
2022-09-06T06:09:51.626Z,81.32
2022-09-06T06:10:51.618Z,80.01
2022-09-06T06:11:51.604Z,79.30
2022-09-06T06:12:51.596Z,80.61
2022-09-06T06:13:51.606Z,81.18
2022-09-06T06:14:51.578Z,80.47
2022-09-06T06:15:51.559Z,80.07
2022-09-06T06:16:51.589Z,78.06
2022-09-06T06:17:51.527Z,77.52
2022-09-06T06:18:52.618Z,77.12
2022-09-06T06:19:51.528Z,77.79
2022-09-06T06:20:51.499Z,76.48
2022-09-06T06:21:51.490Z,75.64
2022-09-06T06:22:51.479Z,74.64
2022-09-06T06:23:51.459Z,74.40
2022-09-06T06:24:51.457Z,73.36
2022-09-06T06:25:51.460Z,72.33
2022-09-06T06:26:51.437Z,71.03
2022-09-06T06:27:51.419Z,70.69
2022-09-06T06:28:51.415Z,70.50
2022-09-06T06:29:51.399Z,70.26
2022-09-06T06:30:51.389Z,68.49
2022-09-06T06:31:51.468Z,66.86
2022-09-06T06:32:51.361Z,65.07
2022-09-06T06:33:51.350Z,62.85
2022-09-06T06:34:51.343Z,60.74
2022-09-06T06:35:51.332Z,59.36
2022-09-06T06:36:51.320Z,56.77
2022-09-06T06:37:51.335Z,53.53
2022-09-06T06:38:51.292Z,51.72
2022-09-06T06:39:51.327Z,50.71
2022-09-06T06:40:54.114Z,50.09
2022-09-06T06:41:52.260Z,49.67
2022-09-06T06:42:51.254Z,48.96
2022-09-06T06:43:51.312Z,48.63
2022-09-06T06:44:51.233Z,50.07
2022-09-06T06:45:51.249Z,46.99
2022-09-06T06:46:51.242Z,45.76
2022-09-06T06:47:51.193Z,45.05
2022-09-06T06:48:54.741Z,44.54
2022-09-06T06:49:51.184Z,43.63
2022-09-06T06:50:51.165Z,43.14
2022-09-06T06:51:51.146Z,43.41
2022-09-06T06:52:51.144Z,42.32
2022-09-06T06:53:51.125Z,42.35
2022-09-06T06:54:51.138Z,42.96
2022-09-06T06:55:51.105Z,42.94
2022-09-06T06:56:51.104Z,42.32
2022-09-06T06:57:51.087Z,42.39
2022-09-06T06:58:51.076Z,41.19
2022-09-06T06:59:51.066Z,41.61
2022-09-06T07:00:51.194Z,41.61
2022-09-06T07:01:51.219Z,41.58
2022-09-06T07:02:51.035Z,41.41
2022-09-06T07:03:51.018Z,41.02
2022-09-06T07:04:51.009Z,40.98
2022-09-06T07:06:13.319Z,40.17
2022-09-06T07:07:51.979Z,39.47
2022-09-06T07:08:50.961Z,39.56
2022-09-06T07:10:51.942Z,39.06
2022-09-06T07:11:50.980Z,38.20
2022-09-06T07:12:50.920Z,39.72
2022-09-06T07:13:50.913Z,40.35
2022-09-06T07:14:50.900Z,41.17
2022-09-06T07:15:50.893Z,41.80
2022-09-06T07:16:50.881Z,42.00
2022-09-06T07:17:50.897Z,41.78
2022-09-06T07:18:50.852Z,41.98
2022-09-06T07:20:14.752Z,42.69
2022-09-06T07:21:51.833Z,41.53
2022-09-06T07:22:50.815Z,41.00
2022-09-06T07:24:06.975Z,40.39
2022-09-06T07:24:51.795Z,39.69
2022-09-06T07:25:50.785Z,39.37
2022-09-06T07:27:51.807Z,40.43
2022-09-06T07:28:50.767Z,41.86
2022-09-06T07:29:50.745Z,42.86
2022-09-06T07:30:50.734Z,43.40
2022-09-06T07:32:11.955Z,43.36
2022-09-06T07:32:51.707Z,42.63
2022-09-06T07:33:55.117Z,41.72
2022-09-06T07:34:51.688Z,41.19
2022-09-06T07:35:50.679Z,40.68
2022-09-06T07:36:50.676Z,40.16
2022-09-06T07:37:50.657Z,39.98
2022-09-06T07:38:50.638Z,39.98
2022-09-06T07:39:50.722Z,40.68
2022-09-06T07:40:50.618Z,40.48
2022-09-06T07:41:50.619Z,40.35
2022-09-06T07:42:50.600Z,39.56
2022-09-06T07:43:50.600Z,39.98
2022-09-06T07:44:50.600Z,39.56
2022-09-06T07:45:50.570Z,40.08
2022-09-06T07:46:50.630Z,40.29
2022-09-06T07:47:57.824Z,40.90
2022-09-06T07:48:51.531Z,41.31
2022-09-06T07:50:53.488Z,41.21
2022-09-06T07:51:50.515Z,41.41
2022-09-06T07:53:57.840Z,41.53
2022-09-06T07:54:51.479Z,41.82
2022-09-06T07:55:50.493Z,41.90
2022-09-06T07:56:50.452Z,40.80
2022-09-06T07:57:50.445Z,40.58
2022-09-06T07:58:50.436Z,40.47
2022-09-06T07:59:50.424Z,39.74
2022-09-06T08:00:50.475Z,39.54
2022-09-06T08:01:50.519Z,39.33
2022-09-06T08:02:50.385Z,38.92
2022-09-06T08:03:50.375Z,38.20
2022-09-06T08:04:51.730Z,38.42
2022-09-06T08:06:10.883Z,37.91
2022-09-06T08:08:59.214Z,38.14
2022-09-06T08:09:51.317Z,38.86
2022-09-06T08:10:50.306Z,39.54
2022-09-06T08:11:50.319Z,38.96
2022-09-06T08:12:50.278Z,38.65
2022-09-06T08:13:50.279Z,38.84
2022-09-06T08:14:50.261Z,38.68
2022-09-06T08:15:50.306Z,40.00
2022-09-06T08:16:50.242Z,40.41
2022-09-06T08:17:50.273Z,40.39
2022-09-06T08:18:50.220Z,40.09
2022-09-06T08:19:50.211Z,40.31
2022-09-06T08:20:50.192Z,40.51
2022-09-06T08:21:50.193Z,40.92
2022-09-06T08:22:50.202Z,41.74
2022-09-06T08:23:50.171Z,41.84
2022-09-06T08:24:50.156Z,41.41
2022-09-06T08:25:50.151Z,40.58
2022-09-06T08:26:50.133Z,39.47
2022-09-06T08:27:50.130Z,39.35
2022-09-06T08:28:50.125Z,39.15
2022-09-06T08:29:50.103Z,38.73
2022-09-06T08:30:50.094Z,38.22
2022-09-06T08:31:50.122Z,37.81
2022-09-06T08:32:50.074Z,37.60
2022-09-06T08:33:50.096Z,37.50
2022-09-06T08:34:50.055Z,37.50
2022-09-06T08:35:50.047Z,36.99
2022-09-06T08:36:50.031Z,36.80
2022-09-06T08:37:50.026Z,37.21
2022-09-06T08:38:50.017Z,37.11
2022-09-06T08:39:50.092Z,37.63
2022-09-06T08:40:50.757Z,37.95
2022-09-06T08:41:49.989Z,38.96
2022-09-06T08:42:49.972Z,39.27
2022-09-06T08:43:50.435Z,39.37
2022-09-06T08:44:57.835Z,38.88
2022-09-06T08:45:53.766Z,38.67
2022-09-06T08:46:49.969Z,38.57
2022-09-06T08:47:49.920Z,38.34
2022-09-06T08:48:49.910Z,38.16
2022-09-06T08:49:49.920Z,38.57
2022-09-06T08:50:49.912Z,39.39
2022-09-06T08:51:49.881Z,40.08
2022-09-06T08:53:13.161Z,39.86
2022-09-06T08:53:50.861Z,38.94
2022-09-06T08:54:49.851Z,38.82
2022-09-06T08:55:49.842Z,38.14
2022-09-06T08:56:49.842Z,38.53
2022-09-06T08:57:49.822Z,37.95
2022-09-06T08:58:49.812Z,38.24
2022-09-06T08:59:49.804Z,37.95
2022-09-06T09:00:49.838Z,38.57
2022-09-06T09:01:49.861Z,38.86
2022-09-06T09:02:49.765Z,38.96
2022-09-06T09:03:49.761Z,39.14
2022-09-06T09:04:49.755Z,38.92
2022-09-06T09:05:49.736Z,38.43
2022-09-06T09:06:49.726Z,37.91
2022-09-06T09:07:49.745Z,37.54
2022-09-06T09:08:49.716Z,37.43
2022-09-06T09:09:49.707Z,37.85
2022-09-06T09:10:49.702Z,37.93
2022-09-06T09:11:49.679Z,37.54
2022-09-06T09:12:49.671Z,37.63
2022-09-06T09:13:49.677Z,37.87
2022-09-06T09:14:49.648Z,39.17
2022-09-06T09:15:49.663Z,38.96
2022-09-06T09:16:49.618Z,38.86
2022-09-06T09:17:49.618Z,38.55
2022-09-06T09:18:49.614Z,38.37
2022-09-06T09:19:49.638Z,39.25
2022-09-06T09:20:49.589Z,38.75
2022-09-06T09:21:49.578Z,38.34
2022-09-06T09:22:49.561Z,38.04
2022-09-06T09:23:49.560Z,37.63
2022-09-06T09:24:49.548Z,37.95
2022-09-06T09:25:49.553Z,38.08
2022-09-06T09:26:49.529Z,39.00
2022-09-06T09:27:49.521Z,39.59
2022-09-06T09:28:49.511Z,39.72
2022-09-06T09:30:50.511Z,39.90
2022-09-06T09:31:53.462Z,39.70
2022-09-06T09:32:49.464Z,39.70
2022-09-06T09:33:49.462Z,39.49
2022-09-06T09:34:49.443Z,39.29
2022-09-06T09:35:49.435Z,40.21
2022-09-06T09:37:54.205Z,41.09
2022-09-06T09:38:50.405Z,41.21
2022-09-06T09:39:49.456Z,41.53
2022-09-06T09:40:49.374Z,42.33
2022-09-06T09:41:49.387Z,42.38
2022-09-06T09:42:49.345Z,43.38
2022-09-06T09:43:49.346Z,43.30
2022-09-06T09:44:49.336Z,43.40
2022-09-06T09:45:49.328Z,44.43
2022-09-06T09:46:49.380Z,44.84
2022-09-06T09:47:49.326Z,46.07
2022-09-06T09:48:49.290Z,46.19
2022-09-06T09:49:49.285Z,46.78
2022-09-06T09:50:49.271Z,47.08
2022-09-06T09:51:49.262Z,46.96
2022-09-06T09:52:49.247Z,46.56
2022-09-06T09:53:49.377Z,47.08
2022-09-06T09:54:49.219Z,47.60
2022-09-06T09:55:49.209Z,47.72
2022-09-06T09:56:49.199Z,47.91
2022-09-06T09:57:49.191Z,48.11
2022-09-06T09:58:49.179Z,48.39
2022-09-06T09:59:49.191Z,47.77
2022-09-06T10:00:49.213Z,47.25
2022-09-06T10:01:49.152Z,46.94
2022-09-06T10:02:49.141Z,46.74
2022-09-06T10:04:50.131Z,46.62
2022-09-06T10:05:49.384Z,46.81
2022-09-06T10:07:10.245Z,46.62
2022-09-06T10:07:50.082Z,46.20
2022-09-06T10:08:49.073Z,46.20
2022-09-06T10:09:49.061Z,46.50
2022-09-06T10:10:49.073Z,46.10
2022-09-06T10:11:49.040Z,46.10
2022-09-06T10:12:49.023Z,46.22
2022-09-06T10:13:49.014Z,46.62
2022-09-06T10:14:49.003Z,46.81
2022-09-06T10:15:49.078Z,46.81
2022-09-06T10:16:49.004Z,47.23
2022-09-06T10:17:48.973Z,47.03
2022-09-06T10:18:49.594Z,47.33
2022-09-06T10:19:49.028Z,47.25
2022-09-06T10:20:48.935Z,48.24
2022-09-06T10:21:48.935Z,47.75
2022-09-06T10:22:48.937Z,48.04
2022-09-06T10:24:49.886Z,48.36
2022-09-06T10:25:49.687Z,48.36
2022-09-06T10:26:48.875Z,48.44
2022-09-06T10:28:01.709Z,48.24
2022-09-06T10:28:49.847Z,48.22
2022-09-06T10:29:48.839Z,47.72
2022-09-06T10:30:48.829Z,47.53
2022-09-06T10:31:48.877Z,47.43
2022-09-06T10:32:48.806Z,47.72
2022-09-06T10:33:48.818Z,47.63
2022-09-06T10:34:48.788Z,47.60
2022-09-06T10:35:48.780Z,47.31
2022-09-06T10:36:48.760Z,47.72
2022-09-06T10:37:48.752Z,47.72
2022-09-06T10:38:48.760Z,48.54
2022-09-06T10:39:48.790Z,49.03
2022-09-06T10:40:48.718Z,48.44
2022-09-06T10:41:48.709Z,48.22
2022-09-06T10:42:48.690Z,47.92
2022-09-06T10:43:48.690Z,48.32
2022-09-06T10:44:48.691Z,47.92
2022-09-06T10:45:48.680Z,48.61
2022-09-06T10:46:48.690Z,48.29
2022-09-06T10:47:48.642Z,47.41
2022-09-06T10:48:48.626Z,47.11
2022-09-06T10:49:48.622Z,47.19
2022-09-06T10:50:48.631Z,47.01
2022-09-06T10:51:48.602Z,47.09
2022-09-06T10:52:48.583Z,46.89
2022-09-06T10:53:48.592Z,46.99
2022-09-06T10:54:48.564Z,46.99
2022-09-06T10:55:48.554Z,46.79
2022-09-06T10:56:48.555Z,46.69
2022-09-06T10:58:16.282Z,46.59
2022-09-06T10:59:51.845Z,46.69
2022-09-06T11:00:48.495Z,46.79
2022-09-06T11:01:48.641Z,46.37
2022-09-06T11:02:48.704Z,46.08
2022-09-06T11:03:58.480Z,46.40
2022-09-06T11:05:49.445Z,47.11
2022-09-06T11:06:48.437Z,47.41
2022-09-06T11:08:51.188Z,47.60
2022-09-06T11:09:48.398Z,47.53
2022-09-06T11:10:48.387Z,48.02
2022-09-06T11:11:48.377Z,48.12
2022-09-06T11:12:48.358Z,47.92
2022-09-06T11:13:48.388Z,47.43
2022-09-06T11:14:48.350Z,47.75
2022-09-06T11:15:48.362Z,48.14
2022-09-06T11:16:48.321Z,47.72
2022-09-06T11:17:48.301Z,47.72
2022-09-06T11:18:48.298Z,47.63
2022-09-06T11:19:48.318Z,47.01
2022-09-06T11:20:48.278Z,47.03
2022-09-06T11:21:48.262Z,47.01
2022-09-06T11:22:48.259Z,47.31
2022-09-06T11:23:48.282Z,47.60
2022-09-06T11:24:48.238Z,47.31
2022-09-06T11:25:48.230Z,46.50
2022-09-06T11:26:48.211Z,46.30
2022-09-06T11:27:48.201Z,46.30
2022-09-06T11:28:48.191Z,46.40
2022-09-06T11:29:48.171Z,46.72
2022-09-06T11:30:48.248Z,47.11
2022-09-06T11:32:16.406Z,47.03
2022-09-06T11:32:49.142Z,47.03
2022-09-06T11:33:48.131Z,47.23
2022-09-06T11:34:48.133Z,47.13
2022-09-06T11:35:48.116Z,47.03
2022-09-06T11:36:48.132Z,47.60
2022-09-06T11:37:48.083Z,47.28
2022-09-06T11:38:48.084Z,47.09
2022-09-06T11:40:49.056Z,46.57
2022-09-06T11:41:48.038Z,46.08
2022-09-06T11:42:48.077Z,46.47
2022-09-06T11:43:48.018Z,46.69
2022-09-06T11:44:48.017Z,47.11
2022-09-06T11:45:48.006Z,47.31
2022-09-06T11:46:48.028Z,47.50
2022-09-06T11:47:47.976Z,47.11
2022-09-06T11:48:47.989Z,47.28
2022-09-06T11:49:47.949Z,47.09
2022-09-06T11:50:47.947Z,46.97
2022-09-06T11:51:47.930Z,46.47
2022-09-06T11:52:47.920Z,46.37
2022-09-06T11:53:47.910Z,46.40
2022-09-06T11:54:47.919Z,46.40
2022-09-06T11:55:47.888Z,46.72
2022-09-06T11:56:47.882Z,47.01
2022-09-06T11:57:47.861Z,46.89
2022-09-06T11:58:47.861Z,46.30
2022-09-06T11:59:47.870Z,46.30
2022-09-06T12:00:47.841Z,46.20
2022-09-06T12:01:47.823Z,46.08
2022-09-06T12:02:47.898Z,46.18
2022-09-06T12:04:48.811Z,46.37
2022-09-06T12:05:47.774Z,46.35
2022-09-06T12:06:47.771Z,45.76
2022-09-06T12:07:47.754Z,46.08
2022-09-06T12:08:47.752Z,46.37
2022-09-06T12:09:47.732Z,46.20
2022-09-06T12:10:47.816Z,46.40
2022-09-06T12:11:47.735Z,46.50
2022-09-06T12:12:47.704Z,47.09
2022-09-06T12:13:47.689Z,46.40
2022-09-06T12:14:47.676Z,45.98
2022-09-06T12:15:47.697Z,46.28
2022-09-06T12:16:47.683Z,46.37
2022-09-06T12:17:47.637Z,45.78
2022-09-06T12:18:47.635Z,46.30
2022-09-06T12:19:47.624Z,46.50
2022-09-06T12:20:47.615Z,46.47
2022-09-06T12:21:47.640Z,46.08
2022-09-06T12:22:47.607Z,46.28
2022-09-06T12:23:47.577Z,45.67
2022-09-06T12:24:47.570Z,45.76
2022-09-06T12:25:47.574Z,45.88
2022-09-06T12:26:49.793Z,46.18
2022-09-06T12:27:48.569Z,46.37
2022-09-06T12:28:47.547Z,46.28
2022-09-06T12:29:47.519Z,46.28
2022-09-06T12:30:47.547Z,46.57
2022-09-06T12:31:47.523Z,46.15
2022-09-06T12:32:47.480Z,45.96
2022-09-06T12:33:47.488Z,45.56
2022-09-06T12:34:47.554Z,45.47
2022-09-06T12:35:58.876Z,45.98
2022-09-06T12:36:48.431Z,45.88
2022-09-06T12:37:47.429Z,45.86
2022-09-06T12:38:47.415Z,45.27
2022-09-06T12:39:47.510Z,45.17
2022-09-06T12:40:47.391Z,44.78
2022-09-06T12:41:47.382Z,45.07
2022-09-06T12:42:47.372Z,45.07
2022-09-06T12:43:47.355Z,44.88
2022-09-06T12:44:47.345Z,44.58
2022-09-06T12:45:47.365Z,44.98
2022-09-06T12:46:47.389Z,44.88
2022-09-06T12:47:47.313Z,44.78
2022-09-06T12:48:47.304Z,44.68
2022-09-06T12:49:47.284Z,44.26
2022-09-06T12:50:47.305Z,44.46
2022-09-06T12:51:47.264Z,44.15
2022-09-06T12:52:47.255Z,43.95
2022-09-06T12:53:47.255Z,43.95
2022-09-06T12:54:47.237Z,43.83
2022-09-06T12:55:47.225Z,43.53
2022-09-06T12:56:47.237Z,43.24
2022-09-06T12:57:47.196Z,43.43
2022-09-06T12:58:47.197Z,43.43
2022-09-06T12:59:47.177Z,43.14
2022-09-06T13:00:47.168Z,43.43
2022-09-06T13:01:47.325Z,43.43
2022-09-06T13:02:47.216Z,43.33
2022-09-06T13:03:47.129Z,43.55
2022-09-06T13:04:47.129Z,43.43
2022-09-06T13:05:47.108Z,43.83
2022-09-06T13:06:47.109Z,43.24
2022-09-06T13:07:47.089Z,43.65
2022-09-06T13:08:47.098Z,43.65
2022-09-06T13:09:47.073Z,43.75